Time;durP1;ratioP1;P1;durP2;ratioP2;P2;SDS_P1;SDS_P2;PMS_P1;PMS_P2;Temp;Humidity;BMP_temperature;BMP_pressure;BME280_temperature;BME280_humidity;BME280_pressure;Samples;Min_cycle;Max_cycle;Signal;HPM_P1;HPM_P2
2023/09/01 00:01:15;;;;;;;8.25;6.45;;;;;;;11.47;100.00;100546.22;5008100;28;20055;-80
2023/09/01 00:03:41;;;;;;;9.63;5.90;;;;;;;11.45;100.00;100545.34;5022836;28;20074;-84
2023/09/01 00:06:18;;;;;;;6.45;5.82;;;;;;;11.42;100.00;100550.66;5021472;28;20045;-80
2023/09/01 00:08:44;;;;;;;6.45;5.65;;;;;;;11.41;100.00;100548.91;5037264;28;20060;-82
2023/09/01 00:11:14;;;;;;;8.27;6.93;;;;;;;11.44;100.00;100540.13;5025259;28;20029;-79
2023/09/01 00:13:42;;;;;;;8.23;6.25;;;;;;;11.44;100.00;100541.00;5020619;28;20045;-80
2023/09/01 00:16:08;;;;;;;6.95;6.22;;;;;;;11.40;100.00;100537.53;5020521;28;20053;-79
2023/09/01 00:18:36;;;;;;;8.10;7.25;;;;;;;11.39;100.00;100535.81;5004412;28;20057;-85
2023/09/01 00:21:04;;;;;;;9.98;6.72;;;;;;;11.38;100.00;100534.09;5024512;28;20129;-79
2023/09/01 00:23:32;;;;;;;7.38;6.50;;;;;;;11.35;100.00;100534.13;5023603;28;20490;-81
2023/09/01 00:26:01;;;;;;;7.95;5.95;;;;;;;11.31;100.00;100537.66;5006680;28;20056;-79
2023/09/01 00:28:28;;;;;;;8.88;6.13;;;;;;;11.30;100.00;100540.31;5003661;28;20045;-84
2023/09/01 00:30:56;;;;;;;8.88;7.88;;;;;;;11.29;100.00;100536.84;5037688;28;20099;-84
2023/09/01 00:33:29;;;;;;;9.43;7.55;;;;;;;11.29;100.00;100533.34;5017457;28;20410;-80
2023/09/01 00:35:57;;;;;;;8.23;7.40;;;;;;;11.23;100.00;100529.91;5016526;28;20073;-82
2023/09/01 00:38:25;;;;;;;20.85;7.50;;;;;;;11.21;100.00;100525.56;5024666;28;20073;-83
2023/09/01 00:40:52;;;;;;;9.82;7.70;;;;;;;11.22;100.00;100522.06;5018787;28;20367;-81
2023/09/01 00:43:19;;;;;;;10.15;7.70;;;;;;;11.21;100.00;100515.97;5006696;28;20041;-81
2023/09/01 00:45:49;;;;;;;8.38;7.15;;;;;;;11.22;100.00;100522.97;5021696;28;20579;-84
2023/09/01 00:48:16;;;;;;;7.45;6.90;;;;;;;11.23;100.00;100514.19;5020697;28;20120;-85
2023/09/01 00:50:44;;;;;;;8.15;7.15;;;;;;;11.25;100.00;100520.28;5022274;28;20632;-83
2023/09/01 00:53:10;;;;;;;9.18;8.00;;;;;;;11.27;100.00;100522.88;5025863;28;20040;-82
2023/09/01 00:55:38;;;;;;;8.43;7.18;;;;;;;11.29;100.00;100520.22;5020283;28;20227;-83
2023/09/01 00:58:04;;;;;;;7.97;7.18;;;;;;;11.30;100.00;100522.81;5005852;28;20046;-81
2023/09/01 01:00:32;;;;;;;10.80;7.53;;;;;;;11.30;100.00;100514.97;5023213;28;20101;-84
2023/09/01 01:03:02;;;;;;;10.70;7.90;;;;;;;11.29;100.00;100512.38;5023144;28;20046;-81
2023/09/01 01:05:54;;;;;;;11.20;7.78;;;;;;;11.29;100.00;100517.63;5020515;28;20060;-81
2023/09/01 01:08:53;;;;;;;10.25;6.88;;;;;;;11.25;100.00;100515.06;5016802;28;20045;-81
2023/09/01 01:11:32;;;;;;;8.85;7.25;;;;;;;11.25;100.00;100508.91;5018517;28;20041;-80
2023/09/01 01:14:06;;;;;;;10.95;7.65;;;;;;;11.25;100.00;100514.16;5022954;28;20046;-82
2023/09/01 01:16:33;;;;;;;8.88;8.00;;;;;;;11.23;100.00;100516.81;5022601;28;20091;-79
2023/09/01 01:19:15;;;;;;;8.75;7.88;;;;;;;11.21;100.00;100522.97;5024428;28;20049;-81
2023/09/01 01:21:45;;;;;;;7.78;6.93;;;;;;;11.19;100.00;100530.00;5022262;28;20409;-80
2023/09/01 01:24:11;;;;;;;7.90;6.78;;;;;;;11.21;100.00;100523.84;5017259;28;20752;-81
2023/09/01 01:26:38;;;;;;;10.20;7.95;;;;;;;11.21;100.00;100529.09;5023810;28;20053;-83
2023/09/01 01:29:07;;;;;;;8.90;8.00;;;;;;;11.24;100.00;100528.19;5046908;28;20037;-82
2023/09/01 01:31:33;;;;;;;10.68;7.25;;;;;;;11.21;100.00;100529.09;5037437;28;20046;-83
2023/09/01 01:34:18;;;;;;;7.90;7.10;;;;;;;11.19;100.00;100525.59;5026346;28;20033;-82
2023/09/01 01:37:02;;;;;;;12.43;7.28;;;;;;;11.26;100.00;100526.38;5024064;28;20051;-84
2023/09/01 01:39:33;;;;;;;8.10;6.78;;;;;;;11.24;100.00;100526.41;4989700;28;20410;-81
2023/09/01 01:42:10;;;;;;;9.93;7.07;;;;;;;11.24;100.00;100525.56;5024085;28;20088;-83
2023/09/01 01:44:43;;;;;;;7.80;7.00;;;;;;;11.25;100.00;100532.50;5018220;28;20049;-81
2023/09/01 01:47:11;;;;;;;8.55;6.93;;;;;;;11.23;100.00;100535.16;5023723;28;20132;-83
2023/09/01 01:49:38;;;;;;;9.38;6.85;;;;;;;11.24;100.00;100538.66;5027366;28;20041;-80
2023/09/01 01:52:05;;;;;;;12.23;8.35;;;;;;;11.20;100.00;100535.22;5011094;28;20500;-82
2023/09/01 01:54:32;;;;;;;7.43;6.82;;;;;;;11.19;100.00;100540.47;5025049;28;20045;-83
2023/09/01 01:57:00;;;;;;;9.30;6.85;;;;;;;11.17;100.00;100547.47;5024878;28;20520;-80
2023/09/01 01:59:27;;;;;;;11.15;8.77;;;;;;;11.15;100.00;100539.63;5024778;28;20052;-81
2023/09/01 02:01:53;;;;;;;11.63;8.60;;;;;;;11.11;100.00;100542.31;5009685;28;20038;-80
2023/09/01 02:04:20;;;;;;;8.80;7.90;;;;;;;11.07;100.00;100536.25;5010392;28;20056;-79
2023/09/01 02:06:46;;;;;;;10.32;8.77;;;;;;;11.09;100.00;100534.47;5024664;28;20135;-82
2023/09/01 02:09:15;;;;;;;8.40;6.45;;;;;;;11.09;100.00;100534.47;5037729;28;20050;-80
2023/09/01 02:11:41;;;;;;;7.80;7.07;;;;;;;11.06;100.00;100534.53;5015612;28;20129;-82
2023/09/01 02:14:08;;;;;;;8.32;7.53;;;;;;;11.00;100.00;100535.47;5027532;28;20038;-81
2023/09/01 02:16:34;;;;;;;8.35;7.50;;;;;;;10.98;100.00;100539.84;5020373;28;20045;-80
2023/09/01 02:19:01;;;;;;;9.05;8.00;;;;;;;10.92;100.00;100525.09;5024770;28;20409;-82
2023/09/01 02:21:28;;;;;;;10.65;7.60;;;;;;;10.93;100.00;100531.19;5026586;28;20044;-80
2023/09/01 02:23:55;;;;;;;9.95;8.32;;;;;;;10.89;100.00;100534.72;5025867;28;20113;-82
2023/09/01 02:26:22;;;;;;;10.55;9.43;;;;;;;10.91;100.00;100532.94;5027016;28;20041;-80
2023/09/01 02:28:50;;;;;;;8.60;7.68;;;;;;;10.89;100.00;100540.81;5023762;28;20049;-80
2023/09/01 02:31:17;;;;;;;7.60;6.43;;;;;;;10.89;100.00;100538.22;5029806;28;20042;-82
2023/09/01 02:33:44;;;;;;;9.88;7.40;;;;;;;10.93;100.00;100539.91;5010126;28;20060;-79
2023/09/01 02:36:33;;;;;;;9.45;8.52;;;;;;;10.92;100.00;100539.94;5027451;28;20094;-80
2023/09/01 02:39:00;;;;;;;10.15;7.97;;;;;;;10.98;100.00;100545.09;5023095;28;21548;-80
2023/09/01 02:41:28;;;;;;;8.70;7.15;;;;;;;11.00;100.00;100552.94;5024276;28;20556;-79
2023/09/01 02:43:55;;;;;;;10.45;8.65;;;;;;;11.02;100.00;100549.41;5021483;28;20053;-82
2023/09/01 02:46:21;;;;;;;10.68;9.57;;;;;;;11.01;100.00;100541.56;5026188;28;20112;-82
2023/09/01 02:48:48;;;;;;;11.07;8.85;;;;;;;10.99;100.00;100548.56;5009841;28;20052;-81
2023/09/01 02:51:14;;;;;;;9.23;7.60;;;;;;;10.96;100.00;100546.84;5027352;28;20459;-80
2023/09/01 02:53:41;;;;;;;8.75;7.82;;;;;;;10.94;100.00;100548.66;5037419;28;20124;-81
2023/09/01 02:56:08;;;;;;;9.50;8.30;;;;;;;10.90;100.00;100536.47;5027555;28;20258;-81
2023/09/01 02:58:34;;;;;;;10.60;8.52;;;;;;;10.91;100.00;100540.81;5021965;28;20052;-79
2023/09/01 03:01:11;;;;;;;13.10;9.55;;;;;;;10.91;100.00;100543.41;5012714;28;20065;-81
2023/09/01 03:03:41;;;;;;;12.13;9.38;;;;;;;10.88;100.00;100544.31;5028112;28;20069;-81
2023/09/01 03:06:08;;;;;;;10.65;9.55;;;;;;;10.86;100.00;100535.63;5027800;28;20069;-82
2023/09/01 03:08:36;;;;;;;11.32;8.85;;;;;;;10.84;100.00;100541.78;5057555;28;20049;-81
2023/09/01 03:11:03;;;;;;;15.38;9.55;;;;;;;10.85;100.00;100541.75;5049929;28;20045;-80
2023/09/01 03:13:30;;;;;;;12.32;9.10;;;;;;;10.86;100.00;100543.50;5028445;28;20057;-83
2023/09/01 03:15:57;;;;;;;11.30;8.88;;;;;;;10.88;100.00;100543.47;5038289;28;20037;-80
2023/09/01 03:18:25;;;;;;;11.27;9.18;;;;;;;10.89;100.00;100545.22;5025576;28;20049;-86
2023/09/01 03:20:53;;;;;;;14.70;10.30;;;;;;;10.91;100.00;100541.69;5021577;28;20049;-83
2023/09/01 03:23:23;;;;;;;12.45;9.32;;;;;;;10.90;100.00;100542.56;5024178;28;20042;-82
2023/09/01 03:25:57;;;;;;;10.35;9.20;;;;;;;10.91;100.00;100546.94;5002588;28;20034;-79
2023/09/01 03:28:24;;;;;;;11.48;8.63;;;;;;;10.91;100.00;100543.41;5016784;28;20041;-81
2023/09/01 03:30:51;;;;;;;15.98;10.85;;;;;;;10.89;100.00;100542.59;5009334;28;20611;-82
2023/09/01 03:33:17;;;;;;;10.80;8.88;;;;;;;10.86;100.00;100545.22;5028251;28;20049;-83
2023/09/01 03:35:44;;;;;;;12.88;10.27;;;;;;;10.87;100.00;100554.81;5022535;28;20047;-80
2023/09/01 03:38:11;;;;;;;13.63;9.88;;;;;;;10.84;100.00;100553.09;5016509;28;20045;-81
2023/09/01 03:40:38;;;;;;;16.95;10.30;;;;;;;10.84;100.00;100553.09;5019652;28;20041;-79
2023/09/01 03:43:06;;;;;;;12.40;10.05;;;;;;;10.83;100.00;100555.75;5018279;28;20147;-80
2023/09/01 03:45:33;;;;;;;12.32;10.20;;;;;;;10.83;100.00;100553.13;5019433;28;20761;-79
2023/09/01 03:47:59;;;;;;;12.15;9.88;;;;;;;10.80;100.00;100553.19;5038284;28;20053;-84
2023/09/01 03:50:26;;;;;;;14.50;9.90;;;;;;;10.78;100.00;100553.19;5024940;28;20060;-79
2023/09/01 03:52:52;;;;;;;14.00;10.20;;;;;;;10.76;100.00;100552.34;5026258;28;20037;-80
2023/09/01 03:55:19;;;;;;;12.65;9.30;;;;;;;10.73;100.00;100558.47;5027219;28;20045;-81
2023/09/01 03:57:45;;;;;;;14.38;11.07;;;;;;;10.70;100.00;100550.66;5018283;28;20132;-81
2023/09/01 04:00:13;;;;;;;11.60;9.98;;;;;;;10.66;100.00;100561.19;5027952;28;20477;-84
2023/09/01 04:02:39;;;;;;;16.67;10.93;;;;;;;10.63;100.00;100562.06;5023560;28;20132;-82
2023/09/01 04:05:06;;;;;;;12.35;9.90;;;;;;;10.61;100.00;100562.97;5020992;28;20045;-82
2023/09/01 04:07:33;;;;;;;14.18;10.20;;;;;;;10.56;100.00;100563.91;5026530;28;20046;-80
2023/09/01 04:09:59;;;;;;;18.67;10.68;;;;;;;10.54;100.00;100568.25;5016957;28;20405;-81
2023/09/01 04:12:26;;;;;;;17.48;11.30;;;;;;;10.52;100.00;100564.81;5024668;28;20125;-81
2023/09/01 04:14:52;;;;;;;13.00;10.88;;;;;;;10.50;100.00;100569.19;5018135;28;20046;-81
2023/09/01 04:17:19;;;;;;;17.33;12.35;;;;;;;10.49;100.00;100569.22;5022166;28;20049;-82
2023/09/01 04:19:48;;;;;;;11.10;9.93;;;;;;;10.50;100.00;100565.72;5026841;28;20539;-83
2023/09/01 04:22:15;;;;;;;12.02;10.07;;;;;;;10.49;100.00;100567.44;5023020;28;20052;-83
2023/09/01 04:24:43;;;;;;;15.57;10.80;;;;;;;10.48;100.00;100563.13;5023839;28;20042;-82
2023/09/01 04:27:09;;;;;;;11.35;10.20;;;;;;;10.49;100.00;100558.75;5024162;28;20033;-83
2023/09/01 04:29:38;;;;;;;13.05;10.63;;;;;;;10.49;100.00;100563.97;5007414;28;20397;-81
2023/09/01 04:32:05;;;;;;;18.40;11.20;;;;;;;10.49;100.00;100563.97;5023613;28;20049;-81
2023/09/01 04:34:32;;;;;;;16.30;11.35;;;;;;;10.49;100.00;100574.44;5024012;28;20585;-81
2023/09/01 04:36:58;;;;;;;14.48;10.57;;;;;;;10.47;100.00;100574.47;5025169;28;20135;-81
2023/09/01 04:39:26;;;;;;;19.10;11.15;;;;;;;10.50;100.00;100571.81;5006795;28;20883;-81
2023/09/01 04:41:52;;;;;;;14.55;10.98;;;;;;;10.50;100.00;100579.66;5008348;28;20107;-80
2023/09/01 04:44:19;;;;;;;15.48;12.05;;;;;;;10.51;100.00;100577.94;5024141;28;20498;-80
2023/09/01 04:46:45;;;;;;;11.50;10.25;;;;;;;10.53;100.00;100576.13;5021496;28;20041;-83
2023/09/01 04:49:12;;;;;;;13.52;11.23;;;;;;;10.54;100.00;100580.50;5008676;28;20406;-80
2023/09/01 04:51:38;;;;;;;15.15;11.05;;;;;;;10.54;100.00;100586.59;5005030;28;20041;-81
2023/09/01 04:54:06;;;;;;;13.85;11.43;;;;;;;10.58;100.00;100585.66;5024942;28;20052;-81
2023/09/01 04:56:32;;;;;;;16.38;11.38;;;;;;;10.59;100.00;100578.69;5027457;28;20433;-83
2023/09/01 04:58:59;;;;;;;16.05;11.30;;;;;;;10.62;100.00;100585.66;5034449;28;20071;-83
2023/09/01 05:01:25;;;;;;;17.80;11.18;;;;;;;10.65;100.00;100581.25;5034517;28;20040;-83
2023/09/01 05:03:52;;;;;;;13.93;10.57;;;;;;;10.68;100.00;100580.38;5003096;28;20053;-79
2023/09/01 05:06:18;;;;;;;13.75;10.32;;;;;;;10.71;100.00;100575.94;5022392;28;20603;-86
2023/09/01 05:08:45;;;;;;;12.50;11.20;;;;;;;10.75;100.00;100587.25;5031164;28;20038;-85
2023/09/01 05:11:11;;;;;;;15.13;10.73;;;;;;;10.81;100.00;100591.53;5005078;28;20041;-85
2023/09/01 05:13:39;;;;;;;12.82;10.13;;;;;;;10.88;100.00;100598.47;5025271;28;20052;-82
2023/09/01 05:16:07;;;;;;;12.90;9.02;;;;;;;10.90;100.00;100597.56;5019516;28;20038;-80
2023/09/01 05:18:33;;;;;;;14.98;10.25;;;;;;;11.00;100.00;100593.09;5028382;28;20046;-79
2023/09/01 05:21:00;;;;;;;13.60;10.10;;;;;;;11.09;100.00;100593.00;5023588;28;20038;-81
2023/09/01 05:23:28;;;;;;;11.95;10.20;;;;;;;11.21;100.00;100589.34;5028806;28;20044;-82
2023/09/01 05:25:54;;;;;;;15.55;9.43;;;;;;;11.30;100.00;100588.34;5007757;28;20037;-79
2023/09/01 05:28:21;;;;;;;14.88;10.65;;;;;;;11.39;100.00;100592.59;5028520;28;20045;-79
2023/09/01 05:30:48;;;;;;;19.15;10.75;;;;;;;11.45;100.00;100595.16;5019474;28;20047;-81
2023/09/01 05:33:14;;;;;;;12.60;10.13;;;;;;;11.50;100.00;100592.44;5026518;28;20077;-81
2023/09/01 05:35:41;;;;;;;12.90;9.02;;;;;;;11.56;100.00;100588.00;5024059;28;20878;-80
2023/09/01 05:38:09;;;;;;;14.98;9.73;;;;;;;11.65;100.00;100594.00;5026202;28;20046;-81
2023/09/01 05:40:35;;;;;;;12.95;10.18;;;;;;;11.68;100.00;100592.22;5028303;28;20447;-86
2023/09/01 05:43:02;;;;;;;12.82;10.10;;;;;;;11.71;100.00;100596.53;5023956;28;20482;-84
2023/09/01 05:45:29;;;;;;;9.20;7.65;;;;;;;11.75;100.00;100600.84;5028406;28;20037;-79
2023/09/01 05:47:56;;;;;;;17.67;8.77;;;;;;;11.79;100.00;100606.94;5022999;28;20056;-79
2023/09/01 05:50:23;;;;;;;17.23;8.05;;;;;;;11.83;100.00;100603.38;5030860;28;20047;-81
2023/09/01 05:52:49;;;;;;;12.65;8.07;;;;;;;11.90;100.00;100600.63;5017919;28;20442;-81
2023/09/01 05:55:16;;;;;;;9.00;7.72;;;;;;;11.95;100.00;100599.69;5024275;28;20050;-80
2023/09/01 05:57:43;;;;;;;12.07;9.60;;;;;;;11.94;100.00;100601.41;5034309;28;20452;-80
2023/09/01 06:00:10;;;;;;;15.32;9.60;;;;;;;12.04;100.00;100599.56;5024661;28;20041;-79
2023/09/01 06:02:36;;;;;;;19.38;9.20;;;;;;;12.09;100.00;100610.84;4999890;28;20395;-81
2023/09/01 06:05:04;;;;;;;11.63;8.88;;;;;;;12.20;100.00;100603.69;5005595;28;20556;-80
2023/09/01 06:07:30;;;;;;;13.95;8.63;;;;;;;12.33;100.00;100601.72;5026616;28;20060;-82
2023/09/01 06:09:58;;;;;;;11.80;8.20;;;;;;;12.43;100.00;100604.19;5023115;28;20080;-81
2023/09/01 06:12:25;;;;;;;8.45;7.47;;;;;;;12.57;100.00;100608.28;5026371;28;20047;-80
2023/09/01 06:14:51;;;;;;;16.02;8.93;;;;;;;12.67;100.00;100606.38;5023623;28;20029;-80
2023/09/01 06:17:18;;;;;;;9.45;7.88;;;;;;;12.82;100.00;100606.97;5022078;28;20128;-82
2023/09/01 06:19:44;;;;;;;10.40;7.95;;;;;;;12.94;100.00;100613.75;5023249;28;20075;-80
2023/09/01 06:22:11;;;;;;;9.80;7.45;;;;;;;13.03;100.00;100619.69;5015279;28;20061;-81
2023/09/01 06:24:37;;;;;;;10.50;6.45;;;;;;;13.17;100.00;100629.09;5023290;28;20057;-82
2023/09/01 06:27:04;;;;;;;8.38;6.25;;;;;;;13.28;100.00;100620.97;5021234;28;20056;-81
2023/09/01 06:29:31;;;;;;;17.77;7.88;;;;;;;13.36;100.00;100625.22;5020110;28;20054;-82
2023/09/01 06:31:57;;;;;;;11.30;6.40;;;;;;;13.50;100.00;100622.25;5007435;28;20500;-85
2023/09/01 06:34:24;;;;;;;11.13;6.50;;;;;;;13.58;100.00;100622.09;5005278;28;20046;-80
2023/09/01 06:36:50;;;;;;;10.00;6.88;;;;;;;13.74;100.00;100625.28;5019101;28;20132;-81
2023/09/01 06:39:18;;;;;;;15.57;7.97;;;;;;;13.82;100.00;100625.97;5007478;28;20046;-81
2023/09/01 06:41:47;;;;;;;9.18;6.60;;;;;;;14.47;100.00;100620.88;5017943;28;20111;-81
2023/09/01 06:44:14;;;;;;;8.88;6.60;;;;;;;16.23;95.62;100622.88;5017964;28;20100;-81
2023/09/01 06:46:40;;;;;;;10.73;6.43;;;;;;;17.90;86.48;100619.50;5016749;28;20120;-82
2023/09/01 06:49:07;;;;;;;8.05;5.78;;;;;;;18.62;81.97;100626.31;5014928;28;20044;-80
2023/09/01 06:51:33;;;;;;;6.10;4.90;;;;;;;19.60;77.49;100629.00;5016857;28;20119;-80
2023/09/01 06:53:59;;;;;;;6.47;5.68;;;;;;;20.03;72.10;100627.91;5021174;28;20045;-81
2023/09/01 06:56:26;;;;;;;6.72;4.75;;;;;;;20.76;66.57;100634.00;5025317;28;20048;-81
2023/09/01 06:58:52;;;;;;;5.57;4.97;;;;;;;21.84;63.29;100632.66;5012553;28;20122;-82
2023/09/01 07:01:19;;;;;;;5.90;4.75;;;;;;;22.45;57.93;100632.78;5012730;28;20600;-83
2023/09/01 07:03:45;;;;;;;9.93;5.63;;;;;;;22.54;56.87;100636.69;5021335;28;20125;-82
2023/09/01 07:06:12;;;;;;;5.93;4.65;;;;;;;21.95;59.69;100640.03;5023562;28;20444;-81
2023/09/01 07:08:38;;;;;;;8.15;5.13;;;;;;;21.58;60.70;100632.31;5021839;28;20053;-81
2023/09/01 07:11:09;;;;;;;7.28;5.18;;;;;;;21.12;62.23;100640.13;5021217;28;20044;-83
2023/09/01 07:13:36;;;;;;;7.50;4.35;;;;;;;22.31;58.78;100630.88;5023251;28;20050;-81
2023/09/01 07:16:03;;;;;;;12.18;5.28;;;;;;;22.65;55.93;100636.06;5013396;28;20048;-82
2023/09/01 07:18:30;;;;;;;9.75;5.88;;;;;;;23.08;54.69;100642.28;5017072;28;20045;-82
2023/09/01 07:21:00;;;;;;;6.45;4.60;;;;;;;23.10;52.68;100642.19;5009982;28;20052;-81
2023/09/01 07:23:28;;;;;;;8.50;5.05;;;;;;;22.67;55.03;100643.03;5018845;28;20046;-80
2023/09/01 07:25:55;;;;;;;5.80;3.92;;;;;;;23.09;53.97;100643.16;5022201;28;20152;-83
2023/09/01 07:28:22;;;;;;;7.53;4.40;;;;;;;24.15;49.73;100637.41;5022154;28;20057;-83
2023/09/01 07:30:49;;;;;;;19.05;5.90;;;;;;;24.81;47.95;100634.75;5030670;28;20624;-83
2023/09/01 07:33:17;;;;;;;11.38;4.35;;;;;;;24.92;46.67;100637.56;5020329;28;20060;-81
2023/09/01 07:35:48;;;;;;;11.52;4.97;;;;;;;24.96;46.14;100638.22;5000770;28;20524;-83
2023/09/01 07:38:16;;;;;;;5.00;3.58;;;;;;;25.72;45.65;100647.09;5022026;28;20046;-83
2023/09/01 07:40:44;;;;;;;6.90;4.32;;;;;;;25.49;44.59;100641.59;5021637;28;20037;-83
2023/09/01 07:43:11;;;;;;;6.22;3.80;;;;;;;25.39;46.22;100652.09;5034874;28;20481;-85
2023/09/01 07:45:39;;;;;;;5.53;4.25;;;;;;;25.56;45.17;100652.72;5021529;28;20048;-83
2023/09/01 07:48:06;;;;;;;6.90;4.45;;;;;;;24.99;45.14;100649.56;5021328;28;20073;-82
2023/09/01 07:50:33;;;;;;;8.30;4.55;;;;;;;24.15;48.24;100650.78;5016655;28;20124;-86
2023/09/01 07:53:09;;;;;;;7.28;4.57;;;;;;;24.81;47.05;100641.00;5015626;28;20065;-81
2023/09/01 07:55:39;;;;;;;5.07;4.22;;;;;;;25.26;44.85;100652.09;5019893;28;20053;-84
2023/09/01 07:58:08;;;;;;;4.72;3.80;;;;;;;24.75;46.97;100649.44;5018595;28;20046;-83
2023/09/01 08:00:36;;;;;;;4.40;3.53;;;;;;;25.72;45.12;100647.09;5017616;28;20060;-88
2023/09/01 08:03:03;;;;;;;3.38;3.05;;;;;;;26.09;44.33;100656.00;5021637;28;20057;-81
2023/09/01 08:05:30;;;;;;;4.78;3.33;;;;;;;26.50;42.93;100653.00;5022253;28;20056;-82
2023/09/01 08:07:56;;;;;;;4.70;3.85;;;;;;;26.91;41.75;100639.09;5016400;28;20486;-82
2023/09/01 08:10:23;;;;;;;4.80;3.53;;;;;;;26.90;42.62;100649.97;5021723;28;20131;-82
2023/09/01 08:12:50;;;;;;;4.70;3.38;;;;;;;27.23;41.84;100641.06;5002600;28;20065;-82
2023/09/01 08:15:16;;;;;;;4.20;3.58;;;;;;;27.27;41.09;100647.03;5005995;28;20049;-82
2023/09/01 08:17:44;;;;;;;5.38;2.97;;;;;;;27.53;40.94;100646.81;5017626;28;20046;-82
2023/09/01 08:20:11;;;;;;;8.05;3.78;;;;;;;27.31;40.33;100645.84;5018980;28;20119;-82
2023/09/01 08:22:37;;;;;;;5.93;3.45;;;;;;;25.83;42.73;100647.19;5018317;28;20045;-84
2023/09/01 08:25:04;;;;;;;6.57;3.72;;;;;;;24.72;46.39;100646.97;5020350;28;20444;-81
2023/09/01 08:27:31;;;;;;;6.53;3.40;;;;;;;24.92;46.44;100638.41;5021572;28;20061;-84
2023/09/01 08:29:57;;;;;;;5.43;3.65;;;;;;;25.44;45.45;100646.44;5021240;28;20056;-82
2023/09/01 08:32:24;;;;;;;4.85;2.80;;;;;;;25.43;46.12;100652.75;5003716;28;20559;-84
2023/09/01 08:34:51;;;;;;;4.57;2.65;;;;;;;25.68;45.17;100645.63;5022402;28;20045;-81
2023/09/01 08:37:18;;;;;;;4.35;2.95;;;;;;;26.27;43.66;100642.19;5014953;28;20041;-80
2023/09/01 08:39:48;;;;;;;5.32;3.05;;;;;;;25.71;44.86;100651.63;5003855;28;20056;-85
2023/09/01 08:42:16;;;;;;;6.57;3.50;;;;;;;25.10;46.58;100643.44;5002763;28;20137;-83
2023/09/01 08:44:43;;;;;;;7.47;3.40;;;;;;;25.38;46.12;100650.44;5019865;28;20133;-83
2023/09/01 08:47:11;;;;;;;5.97;3.38;;;;;;;25.10;45.77;100646.97;5040169;28;20050;-84
2023/09/01 08:49:38;;;;;;;5.65;3.53;;;;;;;24.47;46.80;100647.75;5024787;28;20140;-82
2023/09/01 08:52:05;;;;;;;7.90;3.50;;;;;;;23.64;49.89;100649.53;5017954;28;20095;-81
2023/09/01 08:54:33;;;;;;;6.95;3.25;;;;;;;23.88;49.39;100630.19;5020381;28;20077;-82
2023/09/01 08:57:00;;;;;;;5.10;3.58;;;;;;;24.57;46.74;100632.78;5024337;28;20124;-83
2023/09/01 08:59:29;;;;;;;7.40;3.33;;;;;;;26.15;44.13;100630.56;5020138;28;20045;-83
2023/09/01 09:01:55;;;;;;;5.18;2.97;;;;;;;26.52;42.22;100618.88;5011871;28;20041;-83
2023/09/01 09:04:22;;;;;;;10.18;3.08;;;;;;;25.92;44.00;100624.19;5019130;28;20053;-86
2023/09/01 09:06:49;;;;;;;4.22;2.75;;;;;;;24.68;46.66;100630.28;5036619;28;20049;-82
2023/09/01 09:09:15;;;;;;;10.82;3.78;;;;;;;24.27;46.72;100623.19;5037891;28;20045;-83
2023/09/01 09:11:59;;;;;;;7.47;4.20;;;;;;;24.10;47.67;100635.03;5025067;28;20073;-81
2023/09/01 09:14:27;;;;;;;;;;;;;;;24.60;46.81;100633.44;5031924;28;20052;-81
2023/09/01 09:16:55;;;;;;;4.35;2.85;;;;;;;24.84;46.87;100639.91;5025176;28;19925;-82
2023/09/01 09:19:24;;;;;;;6.38;2.85;;;;;;;24.98;45.91;100630.91;5043478;28;20045;-85
2023/09/01 09:22:06;;;;;;;7.50;3.10;;;;;;;24.73;45.99;100632.59;5032286;28;20125;-82
2023/09/01 09:24:38;;;;;;;7.72;3.17;;;;;;;24.72;46.48;100631.75;5023339;28;20056;-81
2023/09/01 09:27:06;;;;;;;4.78;3.20;;;;;;;24.84;46.92;100622.03;5024093;28;20080;-81
2023/09/01 09:29:43;;;;;;;4.60;3.22;;;;;;;24.53;47.04;100626.78;5036834;28;20042;-82
2023/09/01 09:32:18;;;;;;;6.55;3.35;;;;;;;24.05;48.25;100627.31;5026295;28;20090;-83
2023/09/01 09:35:05;;;;;;;4.68;2.85;;;;;;;24.36;47.52;100624.41;5018953;28;20045;-81
2023/09/01 09:37:33;;;;;;;5.88;2.92;;;;;;;24.56;47.15;100629.25;5020210;28;20622;-85
2023/09/01 09:40:18;;;;;;;4.70;2.88;;;;;;;23.79;48.08;100619.16;5011905;28;20052;-84
2023/09/01 09:42:47;;;;;;;5.85;2.72;;;;;;;23.70;48.62;100625.09;5023900;28;20084;-82
2023/09/01 09:45:26;;;;;;;7.68;2.97;;;;;;;24.31;46.31;100624.69;5019231;28;20069;-84
2023/09/01 09:47:55;;;;;;;5.97;3.50;;;;;;;24.74;45.77;100627.19;5023612;28;20129;-79
2023/09/01 09:50:25;;;;;;;4.18;2.85;;;;;;;25.19;45.52;100632.09;5019896;28;20599;-85
2023/09/01 09:53:02;;;;;;;6.32;2.75;;;;;;;24.96;44.98;100630.19;5045426;28;20485;-86
2023/09/01 09:55:31;;;;;;;7.40;3.20;;;;;;;23.89;47.28;100632.75;5019016;28;20037;-83
2023/09/01 09:58:05;;;;;;;8.25;2.70;;;;;;;23.99;47.81;100635.75;5021732;28;20053;-82
2023/09/01 10:00:37;;;;;;;5.90;3.30;;;;;;;24.70;46.78;100632.84;5021404;28;20100;-83
2023/09/01 10:03:04;;;;;;;8.70;4.28;;;;;;;24.95;45.71;100629.28;5021962;28;20503;-81
2023/09/01 10:05:33;;;;;;;8.30;4.10;;;;;;;24.87;45.43;100629.84;5046669;28;20049;-84
2023/09/01 10:08:08;;;;;;;6.90;3.03;;;;;;;24.31;47.68;100632.72;5044525;28;20058;-82
2023/09/01 10:10:37;;;;;;;6.07;4.03;;;;;;;23.85;47.58;100641.09;5002322;28;20734;-85
2023/09/01 10:13:08;;;;;;;10.70;4.13;;;;;;;24.35;47.04;100639.56;5017244;28;20049;-82
2023/09/01 10:15:36;;;;;;;6.60;2.90;;;;;;;25.04;45.55;100646.56;5019029;28;20080;-81
2023/09/01 10:18:07;;;;;;;5.53;3.67;;;;;;;24.73;44.80;100640.63;5011262;28;20645;-81
2023/09/01 10:20:46;;;;;;;5.18;2.80;;;;;;;25.59;43.22;100645.34;5021201;28;20045;-83
2023/09/01 10:23:14;;;;;;;4.53;2.50;;;;;;;26.64;41.56;100655.47;5019851;28;20052;-86
2023/09/01 10:25:40;;;;;;;6.88;2.88;;;;;;;27.28;39.10;100653.28;5015035;28;20058;-84
2023/09/01 10:28:10;;;;;;;6.55;3.33;;;;;;;26.95;40.05;100644.22;4999448;28;20673;-84
2023/09/01 10:30:40;;;;;;;4.85;2.97;;;;;;;26.05;41.08;100648.31;5031729;28;20060;-84
2023/09/01 10:33:12;;;;;;;4.07;2.20;;;;;;;25.68;42.89;100642.94;5015459;28;20064;-83
2023/09/01 10:35:47;;;;;;;4.20;2.67;;;;;;;24.99;44.52;100649.56;5019566;28;20053;-84
2023/09/01 10:38:19;;;;;;;4.75;2.47;;;;;;;24.51;44.40;100658.16;5013010;28;20049;-81
2023/09/01 10:40:49;;;;;;;4.15;2.45;;;;;;;24.57;44.90;100656.88;5011532;28;20152;-86
2023/09/01 10:43:34;;;;;;;3.78;3.00;;;;;;;23.99;46.93;100650.91;5015231;28;20041;-81
2023/09/01 10:46:13;;;;;;;9.85;2.60;;;;;;;23.67;47.73;100652.00;5018269;28;20414;-79
2023/09/01 10:49:04;;;;;;;6.47;2.53;;;;;;;22.54;50.37;100661.56;5017934;28;20041;-83
2023/09/01 10:51:34;;;;;;;5.88;2.65;;;;;;;23.05;49.45;100653.16;5027626;28;20569;-82
2023/09/01 10:54:23;;;;;;;7.38;3.13;;;;;;;23.05;50.13;100658.50;5013390;28;20065;-82
2023/09/01 10:57:02;;;;;;;5.65;2.65;;;;;;;23.23;49.62;100663.69;5016349;28;20128;-81
2023/09/01 10:59:35;;;;;;;3.97;2.70;;;;;;;23.17;49.40;100661.41;5014491;28;20053;-88
2023/09/01 11:02:24;;;;;;;3.67;1.95;;;;;;;23.14;49.21;100654.47;5011515;28;20079;-83
2023/09/01 11:04:51;;;;;;;5.03;1.95;;;;;;;22.70;50.44;100658.84;5019512;28;20144;-83
2023/09/01 11:07:17;;;;;;;7.53;1.75;;;;;;;22.99;49.44;100653.53;5023939;28;20124;-80
2023/09/01 11:09:48;;;;;;;2.45;1.38;;;;;;;22.79;49.20;100644.94;5015662;28;20045;-82
2023/09/01 11:12:15;;;;;;;2.15;1.90;;;;;;;22.13;50.51;100651.47;5031156;28;20049;-81
2023/09/01 11:14:58;;;;;;;1.60;1.50;;;;;;;21.84;51.73;100659.31;5009186;28;20045;-82
2023/09/01 11:17:43;;;;;;;;;;;;;;;21.42;51.93;100650.91;5024421;28;20034;-83
2023/09/01 11:20:13;;;;;;;4.07;1.27;;;;;;;21.72;51.20;100658.19;5019917;28;19933;-81
2023/09/01 11:22:42;;;;;;;2.47;1.27;;;;;;;22.04;49.50;100649.31;5017666;28;20048;-81
2023/09/01 11:25:16;;;;;;;3.28;1.33;;;;;;;21.89;50.68;100651.91;5007139;28;20112;-84